Flintville, Pennsylvania
Current Conditions -  °F | °C
As of 2:58 AM on Sunday 26 Oct 2014 (Local Time) from KMUI Reporting Station
Broken Clouds Broken Clouds  
Wind Chill: 62°   Ceiling: 6500
Heat Index: 62°   Visibility: 10mi
Dew Point: 38°   Wind: 12mph
Humidity: 41%   Direction: 280°W
Pressure: 29.64"   Gusts: 17mph
Location:  40.2957°N, 76.4189°W
Report Text: KMUI 260658Z AUTO 28010G15KT 10SM BKN065 17/03 A2964 RMK AO2 PK WND 29029/25 SLP038 T01670033 $
Loading
Personal Weather Stations






























Interactive Weather Map
Tropical Storm Tracking
New forecast layout! Learn more

10-Day Weather Forecast

Advertisements
Track Severe Weather on mobile